sensor_id;sensor_type;location;lat;lon;timestamp;pressure;altitude;pressure_sealevel;temperature;humidity
73628;BME280;61923;51.846;5.856;2022-07-04T00:00:48;101841.09;;;21.89;48.91
73628;BME280;61923;51.846;5.856;2022-07-04T00:03:13;101847.38;;;21.88;49.24
73628;BME280;61923;51.846;5.856;2022-07-04T00:05:39;101841.44;;;21.86;49.34
73628;BME280;61923;51.846;5.856;2022-07-04T00:08:04;101843.25;;;21.85;49.31
73628;BME280;61923;51.846;5.856;2022-07-04T00:10:30;101847.09;;;21.83;49.41
73628;BME280;61923;51.846;5.856;2022-07-04T00:12:56;101847.25;;;21.81;49.22
73628;BME280;61923;51.846;5.856;2022-07-04T00:15:22;101850.06;;;21.80;49.08
73628;BME280;61923;51.846;5.856;2022-07-04T00:17:48;101849.44;;;21.78;49.53
73628;BME280;61923;51.846;5.856;2022-07-04T00:20:13;101851.44;;;21.76;49.41
73628;BME280;61923;51.846;5.856;2022-07-04T00:22:39;101847.13;;;21.75;49.66
73628;BME280;61923;51.846;5.856;2022-07-04T00:25:05;101846.47;;;21.73;49.62
73628;BME280;61923;51.846;5.856;2022-07-04T00:27:31;101847.50;;;21.72;49.69
73628;BME280;61923;51.846;5.856;2022-07-04T00:29:56;101851.13;;;21.71;49.48
73628;BME280;61923;51.846;5.856;2022-07-04T00:32:23;101844.38;;;21.68;49.77
73628;BME280;61923;51.846;5.856;2022-07-04T00:34:48;101841.91;;;21.66;49.50
73628;BME280;61923;51.846;5.856;2022-07-04T00:37:14;101848.03;;;21.67;49.71
73628;BME280;61923;51.846;5.856;2022-07-04T00:39:39;101843.88;;;21.64;49.52
73628;BME280;61923;51.846;5.856;2022-07-04T00:42:05;101834.50;;;21.62;50.09
73628;BME280;61923;51.846;5.856;2022-07-04T00:44:31;101834.66;;;21.60;50.04
73628;BME280;61923;51.846;5.856;2022-07-04T00:47:00;101841.13;;;21.58;49.94
73628;BME280;61923;51.846;5.856;2022-07-04T00:49:26;101840.50;;;21.56;50.15
73628;BME280;61923;51.846;5.856;2022-07-04T00:51:51;101847.59;;;21.55;49.82
73628;BME280;61923;51.846;5.856;2022-07-04T00:54:16;101847.94;;;21.52;50.00
73628;BME280;61923;51.846;5.856;2022-07-04T00:56:44;101849.59;;;21.53;49.85
73628;BME280;61923;51.846;5.856;2022-07-04T00:59:10;101849.13;;;21.50;50.29
73628;BME280;61923;51.846;5.856;2022-07-04T01:01:36;101852.41;;;21.52;49.92
73628;BME280;61923;51.846;5.856;2022-07-04T01:04:03;101854.22;;;21.51;50.17
73628;BME280;61923;51.846;5.856;2022-07-04T01:06:30;101850.28;;;21.47;50.11
73628;BME280;61923;51.846;5.856;2022-07-04T01:08:56;101853.91;;;21.46;49.96
73628;BME280;61923;51.846;5.856;2022-07-04T01:11:21;101850.63;;;21.44;50.07
73628;BME280;61923;51.846;5.856;2022-07-04T01:13:47;101852.59;;;21.42;50.30
73628;BME280;61923;51.846;5.856;2022-07-04T01:16:13;101846.50;;;21.41;50.18
73628;BME280;61923;51.846;5.856;2022-07-04T01:18:39;101854.59;;;21.40;50.19
73628;BME280;61923;51.846;5.856;2022-07-04T01:21:05;101846.34;;;21.35;50.29
73628;BME280;61923;51.846;5.856;2022-07-04T01:23:31;101852.47;;;21.35;50.39
73628;BME280;61923;51.846;5.856;2022-07-04T01:25:57;101838.94;;;21.30;50.52
73628;BME280;61923;51.846;5.856;2022-07-04T01:28:23;101839.75;;;21.31;50.51
73628;BME280;61923;51.846;5.856;2022-07-04T01:30:49;101836.47;;;21.28;50.57
73628;BME280;61923;51.846;5.856;2022-07-04T01:33:15;101836.66;;;21.27;50.62
73628;BME280;61923;51.846;5.856;2022-07-04T01:35:43;101829.72;;;21.26;50.23
73628;BME280;61923;51.846;5.856;2022-07-04T01:38:08;101831.06;;;21.22;50.53
73628;BME280;61923;51.846;5.856;2022-07-04T01:40:34;101829.25;;;21.22;50.53
73628;BME280;61923;51.846;5.856;2022-07-04T01:42:59;101823.31;;;21.20;50.68
73628;BME280;61923;51.846;5.856;2022-07-04T01:45:25;101820.00;;;21.18;50.77
73628;BME280;61923;51.846;5.856;2022-07-04T01:47:50;101814.09;;;21.16;50.71
73628;BME280;61923;51.846;5.856;2022-07-04T01:50:15;101813.28;;;21.16;50.75
73628;BME280;61923;51.846;5.856;2022-07-04T01:52:41;101809.16;;;21.13;51.10
73628;BME280;61923;51.846;5.856;2022-07-04T01:55:08;101805.88;;;21.11;50.64
73628;BME280;61923;51.846;5.856;2022-07-04T01:57:34;101811.16;;;21.11;50.64
73628;BME280;61923;51.846;5.856;2022-07-04T01:59:59;101809.50;;;21.10;50.97
73628;BME280;61923;51.846;5.856;2022-07-04T02:02:43;101814.81;;;21.02;51.29
73628;BME280;61923;51.846;5.856;2022-07-04T02:05:09;101811.84;;;21.05;50.78
73628;BME280;61923;51.846;5.856;2022-07-04T02:07:34;101813.47;;;21.06;51.18
73628;BME280;61923;51.846;5.856;2022-07-04T02:10:00;101804.59;;;20.99;51.07
73628;BME280;61923;51.846;5.856;2022-07-04T02:12:25;101806.72;;;21.03;51.00
73628;BME280;61923;51.846;5.856;2022-07-04T02:15:09;101804.41;;;21.00;50.97
73628;BME280;61923;51.846;5.856;2022-07-04T02:17:35;101798.50;;;20.98;51.00
73628;BME280;61923;51.846;5.856;2022-07-04T02:20:01;101800.16;;;20.99;51.26
73628;BME280;61923;51.846;5.856;2022-07-04T02:22:26;101797.84;;;20.96;50.85
73628;BME280;61923;51.846;5.856;2022-07-04T02:24:51;101798.84;;;20.95;51.20
73628;BME280;61923;51.846;5.856;2022-07-04T02:27:17;101800.00;;;20.93;51.19
73628;BME280;61923;51.846;5.856;2022-07-04T02:29:42;101792.25;;;20.91;51.41
73628;BME280;61923;51.846;5.856;2022-07-04T02:32:08;101794.25;;;20.89;51.47
73628;BME280;61923;51.846;5.856;2022-07-04T02:34:34;101795.25;;;20.88;51.39
73628;BME280;61923;51.846;5.856;2022-07-04T02:36:59;101793.41;;;20.88;50.99
73628;BME280;61923;51.846;5.856;2022-07-04T02:39:25;101790.13;;;20.86;51.38
73628;BME280;61923;51.846;5.856;2022-07-04T02:41:50;101804.34;;;20.85;50.99
73628;BME280;61923;51.846;5.856;2022-07-04T02:44:16;101797.59;;;20.83;51.02
73628;BME280;61923;51.846;5.856;2022-07-04T02:46:41;101803.84;;;20.82;51.09
73628;BME280;61923;51.846;5.856;2022-07-04T02:49:07;101802.19;;;20.81;51.24
73628;BME280;61923;51.846;5.856;2022-07-04T02:51:32;101806.81;;;20.79;51.29
73628;BME280;61923;51.846;5.856;2022-07-04T02:53:58;101800.88;;;20.77;51.43
73628;BME280;61923;51.846;5.856;2022-07-04T02:56:23;101811.44;;;20.77;51.58
73628;BME280;61923;51.846;5.856;2022-07-04T02:58:49;101810.97;;;20.73;51.21
73628;BME280;61923;51.846;5.856;2022-07-04T03:01:15;101805.69;;;20.73;51.20
73628;BME280;61923;51.846;5.856;2022-07-04T03:03:40;101804.84;;;20.73;51.40
73628;BME280;61923;51.846;5.856;2022-07-04T03:06:07;101807.34;;;20.74;51.64
73628;BME280;61923;51.846;5.856;2022-07-04T03:08:33;101813.78;;;20.72;51.49
73628;BME280;61923;51.846;5.856;2022-07-04T03:10:59;101814.09;;;20.68;51.83
73628;BME280;61923;51.846;5.856;2022-07-04T03:13:25;101816.28;;;20.65;51.65
73628;BME280;61923;51.846;5.856;2022-07-04T03:15:50;101822.22;;;20.67;51.47
73628;BME280;61923;51.846;5.856;2022-07-04T03:18:16;101820.56;;;20.66;51.67
73628;BME280;61923;51.846;5.856;2022-07-04T03:20:42;101824.53;;;20.62;51.70
73628;BME280;61923;51.846;5.856;2022-07-04T03:23:07;101829.81;;;20.62;51.53
73628;BME280;61923;51.846;5.856;2022-07-04T03:25:33;101838.69;;;20.61;51.83
73628;BME280;61923;51.846;5.856;2022-07-04T03:27:59;101832.09;;;20.57;51.72
73628;BME280;61923;51.846;5.856;2022-07-04T03:30:24;101838.69;;;20.53;51.76
73628;BME280;61923;51.846;5.856;2022-07-04T03:32:50;101840.19;;;20.55;51.85
73628;BME280;61923;51.846;5.856;2022-07-04T03:35:15;101841.81;;;20.56;51.82
73628;BME280;61923;51.846;5.856;2022-07-04T03:37:40;101840.00;;;20.57;51.42
73628;BME280;61923;51.846;5.856;2022-07-04T03:40:06;101838.38;;;20.56;52.02
73628;BME280;61923;51.846;5.856;2022-07-04T03:42:32;101840.50;;;20.52;51.78
73628;BME280;61923;51.846;5.856;2022-07-04T03:44:57;101839.69;;;20.52;51.90
73628;BME280;61923;51.846;5.856;2022-07-04T03:47:22;101842.34;;;20.52;51.93
73628;BME280;61923;51.846;5.856;2022-07-04T03:49:48;101844.97;;;20.52;51.45
73628;BME280;61923;51.846;5.856;2022-07-04T03:52:14;101849.25;;;20.53;51.23
73628;BME280;61923;51.846;5.856;2022-07-04T03:54:39;101852.53;;;20.55;51.61
73628;BME280;61923;51.846;5.856;2022-07-04T03:57:05;101861.47;;;20.54;51.60
73628;BME280;61923;51.846;5.856;2022-07-04T03:59:30;101857.16;;;20.53;51.56
73628;BME280;61923;51.846;5.856;2022-07-04T04:01:55;101864.41;;;20.50;51.24
73628;BME280;61923;51.846;5.856;2022-07-04T04:04:21;101867.72;;;20.53;51.39
73628;BME280;61923;51.846;5.856;2022-07-04T04:07:05;101871.19;;;20.53;51.23
73628;BME280;61923;51.846;5.856;2022-07-04T04:09:30;101877.81;;;20.49;50.87
73628;BME280;61923;51.846;5.856;2022-07-04T04:11:56;101875.31;;;20.47;51.30
73628;BME280;61923;51.846;5.856;2022-07-04T04:14:21;101880.91;;;20.44;51.32
73628;BME280;61923;51.846;5.856;2022-07-04T04:16:47;101877.31;;;20.45;50.59
73628;BME280;61923;51.846;5.856;2022-07-04T04:19:12;101878.28;;;20.44;50.76
73628;BME280;61923;51.846;5.856;2022-07-04T04:21:38;101875.63;;;20.44;50.88
73628;BME280;61923;51.846;5.856;2022-07-04T04:24:04;101875.63;;;20.44;50.57
73628;BME280;61923;51.846;5.856;2022-07-04T04:26:29;101874.66;;;20.45;50.92
73628;BME280;61923;51.846;5.856;2022-07-04T04:28:55;101881.56;;;20.46;51.17
73628;BME280;61923;51.846;5.856;2022-07-04T04:31:21;101883.53;;;20.53;50.78
73628;BME280;61923;51.846;5.856;2022-07-04T04:33:46;101881.56;;;20.55;50.54
73628;BME280;61923;51.846;5.856;2022-07-04T04:36:12;101875.47;;;20.54;50.67
73628;BME280;61923;51.846;5.856;2022-07-04T04:38:37;101872.66;;;20.56;50.38
73628;BME280;61923;51.846;5.856;2022-07-04T04:41:03;101880.28;;;20.59;50.65
73628;BME280;61923;51.846;5.856;2022-07-04T04:43:28;101884.69;;;20.58;50.34
73628;BME280;61923;51.846;5.856;2022-07-04T04:45:54;101886.69;;;20.64;50.20
73628;BME280;61923;51.846;5.856;2022-07-04T04:48:19;101882.91;;;20.67;50.54
73628;BME280;61923;51.846;5.856;2022-07-04T04:50:45;101883.56;;;20.69;50.57
73628;BME280;61923;51.846;5.856;2022-07-04T04:53:11;101881.59;;;20.71;50.34
73628;BME280;61923;51.846;5.856;2022-07-04T04:55:36;101880.59;;;20.72;50.09
73628;BME280;61923;51.846;5.856;2022-07-04T04:58:02;101869.38;;;20.70;50.42
73628;BME280;61923;51.846;5.856;2022-07-04T05:00:27;101870.69;;;20.74;50.63
73628;BME280;61923;51.846;5.856;2022-07-04T05:02:52;101869.50;;;20.77;50.38
73628;BME280;61923;51.846;5.856;2022-07-04T05:05:18;101870.19;;;20.71;50.01
73628;BME280;61923;51.846;5.856;2022-07-04T05:07:43;101876.31;;;20.71;50.15
73628;BME280;61923;51.846;5.856;2022-07-04T05:10:09;101872.34;;;20.75;50.05
73628;BME280;61923;51.846;5.856;2022-07-04T05:12:34;101875.16;;;20.74;50.19
73628;BME280;61923;51.846;5.856;2022-07-04T05:15:00;101874.31;;;20.73;50.25
73628;BME280;61923;51.846;5.856;2022-07-04T05:17:25;101869.69;;;20.75;50.29
73628;BME280;61923;51.846;5.856;2022-07-04T05:19:51;101875.28;;;20.80;49.92
73628;BME280;61923;51.846;5.856;2022-07-04T05:22:16;101864.38;;;20.92;49.81
73628;BME280;61923;51.846;5.856;2022-07-04T05:24:42;101862.34;;;21.02;49.73
73628;BME280;61923;51.846;5.856;2022-07-04T05:27:08;101869.56;;;21.16;49.64
73628;BME280;61923;51.846;5.856;2022-07-04T05:29:33;101870.00;;;21.28;49.18
73628;BME280;61923;51.846;5.856;2022-07-04T05:31:59;101864.19;;;21.41;48.94
73628;BME280;61923;51.846;5.856;2022-07-04T05:34:24;101872.97;;;21.64;48.79
73628;BME280;61923;51.846;5.856;2022-07-04T05:36:50;101872.63;;;22.14;47.27
73628;BME280;61923;51.846;5.856;2022-07-04T05:39:15;101887.25;;;22.47;46.70
73628;BME280;61923;51.846;5.856;2022-07-04T05:41:41;101887.16;;;23.45;44.09
73628;BME280;61923;51.846;5.856;2022-07-04T05:44:06;101878.66;;;29.27;31.89
73628;BME280;61923;51.846;5.856;2022-07-04T05:46:32;101894.09;;;32.28;26.43
73628;BME280;61923;51.846;5.856;2022-07-04T05:48:57;101898.84;;;33.53;24.52
73628;BME280;61923;51.846;5.856;2022-07-04T05:51:23;101910.00;;;34.00;23.68
73628;BME280;61923;51.846;5.856;2022-07-04T05:53:48;101913.16;;;34.29;23.52
73628;BME280;61923;51.846;5.856;2022-07-04T05:56:14;101913.69;;;33.88;23.65
73628;BME280;61923;51.846;5.856;2022-07-04T05:58:40;101927.22;;;30.14;29.32
73628;BME280;61923;51.846;5.856;2022-07-04T06:01:06;101916.56;;;33.49;24.33
73628;BME280;61923;51.846;5.856;2022-07-04T06:03:31;101921.47;;;33.58;24.04
73628;BME280;61923;51.846;5.856;2022-07-04T06:05:57;101923.47;;;34.37;22.94
73628;BME280;61923;51.846;5.856;2022-07-04T06:08:22;101942.38;;;34.42;22.46
73628;BME280;61923;51.846;5.856;2022-07-04T06:10:48;101924.56;;;34.04;22.95
73628;BME280;61923;51.846;5.856;2022-07-04T06:13:14;101920.00;;;32.96;24.46
73628;BME280;61923;51.846;5.856;2022-07-04T06:15:39;101918.72;;;32.81;24.66
73628;BME280;61923;51.846;5.856;2022-07-04T06:18:04;101925.72;;;31.59;26.42
73628;BME280;61923;51.846;5.856;2022-07-04T06:20:30;101918.16;;;30.63;28.39
73628;BME280;61923;51.846;5.856;2022-07-04T06:22:56;101911.06;;;29.79;29.53
73628;BME280;61923;51.846;5.856;2022-07-04T06:25:22;101920.13;;;28.99;31.08
73628;BME280;61923;51.846;5.856;2022-07-04T06:27:48;101918.59;;;28.23;32.56
73628;BME280;61923;51.846;5.856;2022-07-04T06:30:15;101906.91;;;27.92;32.99
73628;BME280;61923;51.846;5.856;2022-07-04T06:32:52;101914.44;;;27.18;34.38
73628;BME280;61923;51.846;5.856;2022-07-04T06:35:29;101924.50;;;27.16;34.73
73628;BME280;61923;51.846;5.856;2022-07-04T06:38:17;101912.34;;;26.61;35.54
73628;BME280;61923;51.846;5.856;2022-07-04T06:40:43;101905.16;;;26.42;36.00
73628;BME280;61923;51.846;5.856;2022-07-04T06:43:09;101901.47;;;26.50;36.08
73628;BME280;61923;51.846;5.856;2022-07-04T06:45:34;101911.72;;;26.53;35.92
73628;BME280;61923;51.846;5.856;2022-07-04T06:48:01;101909.72;;;26.28;36.59
73628;BME280;61923;51.846;5.856;2022-07-04T06:50:27;101900.88;;;26.01;37.17
73628;BME280;61923;51.846;5.856;2022-07-04T06:52:53;101911.25;;;25.76;37.75
73628;BME280;61923;51.846;5.856;2022-07-04T06:55:18;101903.53;;;26.08;36.79
73628;BME280;61923;51.846;5.856;2022-07-04T06:57:43;101903.47;;;25.68;37.37
73628;BME280;61923;51.846;5.856;2022-07-04T07:00:10;101903.34;;;25.28;38.85
73628;BME280;61923;51.846;5.856;2022-07-04T07:02:36;101903.16;;;24.94;39.20
73628;BME280;61923;51.846;5.856;2022-07-04T07:05:03;101904.44;;;24.70;39.91
73628;BME280;61923;51.846;5.856;2022-07-04T07:07:29;101903.94;;;24.53;40.07
73628;BME280;61923;51.846;5.856;2022-07-04T07:09:54;101889.66;;;24.96;39.16
73628;BME280;61923;51.846;5.856;2022-07-04T07:12:21;101886.47;;;25.62;38.28
73628;BME280;61923;51.846;5.856;2022-07-04T07:14:47;101891.72;;;25.42;38.11
73628;BME280;61923;51.846;5.856;2022-07-04T07:17:13;101893.84;;;25.73;38.19
73628;BME280;61923;51.846;5.856;2022-07-04T07:19:38;101898.41;;;25.99;37.24
73628;BME280;61923;51.846;5.856;2022-07-04T07:22:04;101885.75;;;26.15;37.11
73628;BME280;61923;51.846;5.856;2022-07-04T07:24:29;101893.72;;;26.15;37.36
73628;BME280;61923;51.846;5.856;2022-07-04T07:26:57;101912.97;;;26.23;37.28
73628;BME280;61923;51.846;5.856;2022-07-04T07:29:23;101917.38;;;25.70;38.35
73628;BME280;61923;51.846;5.856;2022-07-04T07:31:48;101903.84;;;25.10;40.04
73628;BME280;61923;51.846;5.856;2022-07-04T07:34:14;101908.50;;;25.01;40.37
73628;BME280;61923;51.846;5.856;2022-07-04T07:36:39;101905.81;;;25.36;39.75
73628;BME280;61923;51.846;5.856;2022-07-04T07:39:04;101898.56;;;25.64;39.01
73628;BME280;61923;51.846;5.856;2022-07-04T07:41:30;101900.75;;;25.48;39.41
73628;BME280;61923;51.846;5.856;2022-07-04T07:43:55;101896.47;;;25.53;39.54
73628;BME280;61923;51.846;5.856;2022-07-04T07:46:21;101884.66;;;25.76;39.15
73628;BME280;61923;51.846;5.856;2022-07-04T07:48:46;101885.13;;;26.13;38.92
73628;BME280;61923;51.846;5.856;2022-07-04T07:51:12;101877.75;;;26.01;39.16
73628;BME280;61923;51.846;5.856;2022-07-04T07:53:40;101876.53;;;26.11;39.17
73628;BME280;61923;51.846;5.856;2022-07-04T07:56:06;101872.00;;;25.98;39.53
73628;BME280;61923;51.846;5.856;2022-07-04T07:58:31;101883.28;;;26.07;39.60
73628;BME280;61923;51.846;5.856;2022-07-04T08:00:57;101874.88;;;26.03;39.50
73628;BME280;61923;51.846;5.856;2022-07-04T08:03:23;101878.38;;;25.97;39.72
73628;BME280;61923;51.846;5.856;2022-07-04T08:06:07;101868.50;;;26.37;39.19
73628;BME280;61923;51.846;5.856;2022-07-04T08:08:32;101878.16;;;26.25;39.55
73628;BME280;61923;51.846;5.856;2022-07-04T08:10:58;101876.91;;;26.41;38.89
73628;BME280;61923;51.846;5.856;2022-07-04T08:13:23;101875.88;;;26.35;39.33
73628;BME280;61923;51.846;5.856;2022-07-04T08:15:49;101879.38;;;26.62;38.71
73628;BME280;61923;51.846;5.856;2022-07-04T08:18:14;101887.97;;;26.45;38.93
73628;BME280;61923;51.846;5.856;2022-07-04T08:20:41;101887.97;;;26.58;38.42
73628;BME280;61923;51.846;5.856;2022-07-04T08:23:07;101887.16;;;26.37;38.97
73628;BME280;61923;51.846;5.856;2022-07-04T08:25:32;101893.91;;;26.67;38.34
73628;BME280;61923;51.846;5.856;2022-07-04T08:27:58;101893.91;;;26.60;38.24
73628;BME280;61923;51.846;5.856;2022-07-04T08:30:23;101891.47;;;26.58;38.78
73628;BME280;61923;51.846;5.856;2022-07-04T08:32:48;101899.47;;;26.25;39.35
73628;BME280;61923;51.846;5.856;2022-07-04T08:35:14;101900.44;;;26.77;38.37
73628;BME280;61923;51.846;5.856;2022-07-04T08:37:39;101899.84;;;26.55;38.54
73628;BME280;61923;51.846;5.856;2022-07-04T08:40:07;101900.28;;;26.59;38.56
73628;BME280;61923;51.846;5.856;2022-07-04T08:42:37;101899.44;;;26.32;38.86
73628;BME280;61923;51.846;5.856;2022-07-04T08:45:04;101894.97;;;26.19;39.46
73628;BME280;61923;51.846;5.856;2022-07-04T08:47:33;101907.84;;;26.49;39.07
73628;BME280;61923;51.846;5.856;2022-07-04T08:50:10;101911.34;;;26.09;39.75
73628;BME280;61923;51.846;5.856;2022-07-04T08:52:38;101906.63;;;26.18;39.50
73628;BME280;61923;51.846;5.856;2022-07-04T08:55:06;101905.63;;;26.12;39.37
73628;BME280;61923;51.846;5.856;2022-07-04T08:57:51;101910.72;;;26.07;39.41
73628;BME280;61923;51.846;5.856;2022-07-04T09:00:35;101902.72;;;26.14;39.11
73628;BME280;61923;51.846;5.856;2022-07-04T09:03:02;101894.91;;;25.72;39.92
73628;BME280;61923;51.846;5.856;2022-07-04T09:05:29;101902.66;;;25.60;40.55
73628;BME280;61923;51.846;5.856;2022-07-04T09:07:54;101904.75;;;25.92;39.98
73628;BME280;61923;51.846;5.856;2022-07-04T09:10:21;101900.91;;;26.14;39.90
73628;BME280;61923;51.846;5.856;2022-07-04T09:12:47;101903.94;;;26.18;39.08
73628;BME280;61923;51.846;5.856;2022-07-04T09:15:14;101896.59;;;26.20;39.41
73628;BME280;61923;51.846;5.856;2022-07-04T09:17:40;101898.84;;;26.23;39.23
73628;BME280;61923;51.846;5.856;2022-07-04T09:20:20;101903.56;;;26.14;39.28
73628;BME280;61923;51.846;5.856;2022-07-04T09:22:47;101895.75;;;25.99;39.41
73628;BME280;61923;51.846;5.856;2022-07-04T09:25:14;101906.22;;;26.01;39.42
73628;BME280;61923;51.846;5.856;2022-07-04T09:27:45;101901.50;;;26.10;39.53
73628;BME280;61923;51.846;5.856;2022-07-04T09:30:17;101893.88;;;25.87;40.15
73628;BME280;61923;51.846;5.856;2022-07-04T09:32:45;101899.59;;;25.77;39.96
73628;BME280;61923;51.846;5.856;2022-07-04T09:35:23;101889.56;;;25.79;40.10
73628;BME280;61923;51.846;5.856;2022-07-04T09:37:53;101892.44;;;25.84;40.12
73628;BME280;61923;51.846;5.856;2022-07-04T09:40:38;101897.72;;;25.57;40.55
73628;BME280;61923;51.846;5.856;2022-07-04T09:43:23;101900.06;;;25.32;41.31
73628;BME280;61923;51.846;5.856;2022-07-04T09:45:53;101903.38;;;24.93;42.34
73628;BME280;61923;51.846;5.856;2022-07-04T09:48:20;101897.44;;;24.91;42.05
73628;BME280;61923;51.846;5.856;2022-07-04T09:50:45;101908.31;;;24.68;42.95
73628;BME280;61923;51.846;5.856;2022-07-04T09:53:11;101904.81;;;24.60;43.15
73628;BME280;61923;51.846;5.856;2022-07-04T09:55:38;101904.38;;;24.57;43.22
73628;BME280;61923;51.846;5.856;2022-07-04T09:58:14;101907.69;;;24.44;43.49
73628;BME280;61923;51.846;5.856;2022-07-04T10:00:44;101900.88;;;24.56;43.39
73628;BME280;61923;51.846;5.856;2022-07-04T10:03:23;101905.84;;;24.66;43.25
73628;BME280;61923;51.846;5.856;2022-07-04T10:08:29;101898.94;;;25.07;42.71
73628;BME280;61923;51.846;5.856;2022-07-04T10:10:59;101902.13;;;24.89;43.05
73628;BME280;61923;51.846;5.856;2022-07-04T10:13:25;101896.00;;;24.95;43.29
73628;BME280;61923;51.846;5.856;2022-07-04T10:15:51;101882.28;;;24.84;43.33
73628;BME280;61923;51.846;5.856;2022-07-04T10:18:21;101883.25;;;24.77;43.39
73628;BME280;61923;51.846;5.856;2022-07-04T10:20:47;101880.97;;;24.74;43.39
73628;BME280;61923;51.846;5.856;2022-07-04T10:23:15;101892.72;;;24.58;44.09
73628;BME280;61923;51.846;5.856;2022-07-04T10:25:41;101880.84;;;24.54;43.88
73628;BME280;61923;51.846;5.856;2022-07-04T10:28:08;101880.53;;;24.70;43.64
73628;BME280;61923;51.846;5.856;2022-07-04T10:30:35;101877.94;;;24.77;43.92
73628;BME280;61923;51.846;5.856;2022-07-04T10:33:04;101885.56;;;24.87;43.84
73628;BME280;61923;51.846;5.856;2022-07-04T10:38:15;101880.81;;;24.82;43.81
73628;BME280;61923;51.846;5.856;2022-07-04T10:40:53;101874.94;;;24.93;43.60
73628;BME280;61923;51.846;5.856;2022-07-04T10:48:27;101884.91;;;25.26;43.08
73628;BME280;61923;51.846;5.856;2022-07-04T10:51:06;101871.38;;;25.14;43.19
73628;BME280;61923;51.846;5.856;2022-07-04T10:53:39;101872.09;;;24.95;43.51
73628;BME280;61923;51.846;5.856;2022-07-04T10:58:44;101870.34;;;24.74;44.03
73628;BME280;61923;51.846;5.856;2022-07-04T11:01:13;101876.88;;;24.71;43.91
73628;BME280;61923;51.846;5.856;2022-07-04T11:03:50;101878.47;;;24.65;44.38
73628;BME280;61923;51.846;5.856;2022-07-04T11:09:19;101868.44;;;24.61;43.97
73628;BME280;61923;51.846;5.856;2022-07-04T11:11:55;101874.47;;;24.76;43.38
73628;BME280;61923;51.846;5.856;2022-07-04T11:14:43;101867.13;;;24.78;43.30
73628;BME280;61923;51.846;5.856;2022-07-04T11:17:13;101862.19;;;24.75;43.22
73628;BME280;61923;51.846;5.856;2022-07-04T11:19:39;101865.22;;;24.72;42.99
73628;BME280;61923;51.846;5.856;2022-07-04T11:22:06;101862.78;;;24.71;42.65
73628;BME280;61923;51.846;5.856;2022-07-04T11:24:34;101857.31;;;24.79;42.90
73628;BME280;61923;51.846;5.856;2022-07-04T11:27:00;101864.25;;;24.80;43.00
73628;BME280;61923;51.846;5.856;2022-07-04T11:29:27;101856.72;;;24.83;43.08
73628;BME280;61923;51.846;5.856;2022-07-04T11:31:53;101855.75;;;24.98;42.73
73628;BME280;61923;51.846;5.856;2022-07-04T11:34:19;101852.47;;;24.96;43.09
73628;BME280;61923;51.846;5.856;2022-07-04T11:36:48;101852.00;;;24.85;43.04
73628;BME280;61923;51.846;5.856;2022-07-04T11:39:22;101846.31;;;24.89;43.00
73628;BME280;61923;51.846;5.856;2022-07-04T11:41:52;101853.44;;;24.88;43.02
73628;BME280;61923;51.846;5.856;2022-07-04T11:44:38;101853.25;;;24.90;43.29
73628;BME280;61923;51.846;5.856;2022-07-04T11:47:23;101851.22;;;24.92;43.23
73628;BME280;61923;51.846;5.856;2022-07-04T11:49:54;101848.81;;;24.97;42.79
73628;BME280;61923;51.846;5.856;2022-07-04T11:52:22;101843.69;;;25.02;43.03
73628;BME280;61923;51.846;5.856;2022-07-04T11:54:49;101845.47;;;25.23;42.50
73628;BME280;61923;51.846;5.856;2022-07-04T11:57:26;101840.97;;;25.23;42.29
73628;BME280;61923;51.846;5.856;2022-07-04T12:02:27;101842.38;;;25.26;42.32
73628;BME280;61923;51.846;5.856;2022-07-04T12:04:53;101840.97;;;25.23;42.80
73628;BME280;61923;51.846;5.856;2022-07-04T12:07:20;101834.56;;;25.11;42.92
73628;BME280;61923;51.846;5.856;2022-07-04T12:09:47;101829.63;;;25.08;42.92
73628;BME280;61923;51.846;5.856;2022-07-04T12:12:14;101825.97;;;25.09;43.15
73628;BME280;61923;51.846;5.856;2022-07-04T12:15:06;101821.50;;;25.16;42.71
73628;BME280;61923;51.846;5.856;2022-07-04T12:17:34;101833.75;;;25.11;43.28
73628;BME280;61923;51.846;5.856;2022-07-04T12:20:02;101826.19;;;25.14;42.82
73628;BME280;61923;51.846;5.856;2022-07-04T12:24:58;101826.03;;;25.22;42.66
73628;BME280;61923;51.846;5.856;2022-07-04T12:27:25;101834.22;;;25.28;42.70
73628;BME280;61923;51.846;5.856;2022-07-04T12:29:52;101832.78;;;25.32;42.48
73628;BME280;61923;51.846;5.856;2022-07-04T12:32:19;101824.44;;;25.35;42.56
73628;BME280;61923;51.846;5.856;2022-07-04T12:34:45;101817.03;;;25.30;42.58
73628;BME280;61923;51.846;5.856;2022-07-04T12:37:13;101818.69;;;25.38;42.29
73628;BME280;61923;51.846;5.856;2022-07-04T12:39:40;101810.94;;;25.36;42.30
73628;BME280;61923;51.846;5.856;2022-07-04T12:44:32;101817.47;;;25.34;42.37
73628;BME280;61923;51.846;5.856;2022-07-04T12:46:58;101816.06;;;25.44;42.31
73628;BME280;61923;51.846;5.856;2022-07-04T12:49:24;101813.00;;;25.48;42.21
73628;BME280;61923;51.846;5.856;2022-07-04T12:51:50;101811.38;;;25.47;42.25
73628;BME280;61923;51.846;5.856;2022-07-04T12:54:16;101816.50;;;25.55;41.93
73628;BME280;61923;51.846;5.856;2022-07-04T12:56:44;101809.94;;;25.51;42.13
73628;BME280;61923;51.846;5.856;2022-07-04T12:59:12;101813.78;;;25.35;42.36
73628;BME280;61923;51.846;5.856;2022-07-04T13:01:39;101805.44;;;25.44;42.34
73628;BME280;61923;51.846;5.856;2022-07-04T13:04:05;101806.44;;;25.50;42.03
73628;BME280;61923;51.846;5.856;2022-07-04T13:06:32;101806.88;;;25.47;42.22
73628;BME280;61923;51.846;5.856;2022-07-04T13:08:58;101811.34;;;25.40;42.27
73628;BME280;61923;51.846;5.856;2022-07-04T13:11:25;101812.38;;;25.46;42.14
73628;BME280;61923;51.846;5.856;2022-07-04T13:14:09;101813.59;;;25.50;42.14